sensor_id;sensor_type;location;lat;lon;timestamp;pressure;altitude;pressure_sealevel;temperature;humidity
41140;BME280;26881;48.784;9.192;2023-03-13T00:02:33;98153.25;;;8.24;78.25
41140;BME280;26881;48.784;9.192;2023-03-13T00:07:55;98147.13;;;8.26;77.71
41140;BME280;26881;48.784;9.192;2023-03-13T00:13:17;98147.97;;;8.26;78.22
41140;BME280;26881;48.784;9.192;2023-03-13T00:18:44;98136.53;;;8.29;78.00
41140;BME280;26881;48.784;9.192;2023-03-13T00:24:08;98138.75;;;8.20;78.62
41140;BME280;26881;48.784;9.192;2023-03-13T00:29:32;98130.44;;;8.14;79.40
41140;BME280;26881;48.784;9.192;2023-03-13T00:34:54;98134.63;;;8.16;78.89
41140;BME280;26881;48.784;9.192;2023-03-13T00:40:16;98118.56;;;8.08;79.67
41140;BME280;26881;48.784;9.192;2023-03-13T00:45:38;98125.22;;;8.14;79.41
41140;BME280;26881;48.784;9.192;2023-03-13T00:51:01;98105.22;;;8.14;79.38
41140;BME280;26881;48.784;9.192;2023-03-13T00:56:23;98103.19;;;8.19;79.46
41140;BME280;26881;48.784;9.192;2023-03-13T01:01:45;98102.34;;;8.19;80.06
41140;BME280;26881;48.784;9.192;2023-03-13T01:07:08;98089.06;;;8.23;79.38
41140;BME280;26881;48.784;9.192;2023-03-13T01:12:30;98079.41;;;8.26;79.58
41140;BME280;26881;48.784;9.192;2023-03-13T01:17:51;98069.91;;;8.24;79.58
41140;BME280;26881;48.784;9.192;2023-03-13T01:23:13;98053.03;;;8.46;78.64
41140;BME280;26881;48.784;9.192;2023-03-13T01:28:36;98041.97;;;8.42;78.80
41140;BME280;26881;48.784;9.192;2023-03-13T01:34:01;98034.72;;;8.48;78.81
41140;BME280;26881;48.784;9.192;2023-03-13T01:39:24;98028.75;;;8.46;79.05
41140;BME280;26881;48.784;9.192;2023-03-13T01:44:54;98019.19;;;8.60;78.70
41140;BME280;26881;48.784;9.192;2023-03-13T01:50:16;98008.38;;;8.67;77.63
41140;BME280;26881;48.784;9.192;2023-03-13T01:55:37;97998.63;;;8.70;77.77
41140;BME280;26881;48.784;9.192;2023-03-13T02:00:59;97984.91;;;8.81;77.05
41140;BME280;26881;48.784;9.192;2023-03-13T02:06:22;97974.75;;;8.76;77.63
41140;BME280;26881;48.784;9.192;2023-03-13T02:11:58;97967.97;;;8.74;76.93
41140;BME280;26881;48.784;9.192;2023-03-13T02:17:23;97954.47;;;8.67;77.89
41140;BME280;26881;48.784;9.192;2023-03-13T02:28:33;97952.72;;;8.68;77.98
41140;BME280;26881;48.784;9.192;2023-03-13T02:33:58;97949.47;;;8.64;77.99
41140;BME280;26881;48.784;9.192;2023-03-13T02:39:22;97940.53;;;8.68;78.06
41140;BME280;26881;48.784;9.192;2023-03-13T02:44:46;97919.59;;;8.70;77.69
41140;BME280;26881;48.784;9.192;2023-03-13T02:50:08;97902.91;;;8.72;77.26
41140;BME280;26881;48.784;9.192;2023-03-13T02:55:35;97895.34;;;8.82;77.16
41140;BME280;26881;48.784;9.192;2023-03-13T03:00:59;97884.34;;;8.91;76.59
41140;BME280;26881;48.784;9.192;2023-03-13T03:06:28;97877.41;;;9.04;76.26
41140;BME280;26881;48.784;9.192;2023-03-13T03:11:50;97867.69;;;9.06;76.37
41140;BME280;26881;48.784;9.192;2023-03-13T03:17:11;97852.41;;;9.15;75.98
41140;BME280;26881;48.784;9.192;2023-03-13T03:22:33;97851.59;;;9.27;75.99
41140;BME280;26881;48.784;9.192;2023-03-13T03:27:55;97849.94;;;9.26;77.66
41140;BME280;26881;48.784;9.192;2023-03-13T03:33:17;97843.03;;;9.25;81.02
41140;BME280;26881;48.784;9.192;2023-03-13T03:38:39;97831.31;;;9.18;83.23
41140;BME280;26881;48.784;9.192;2023-03-13T03:44:02;97831.84;;;9.23;84.74
41140;BME280;26881;48.784;9.192;2023-03-13T03:49:23;97829.38;;;9.21;85.48
41140;BME280;26881;48.784;9.192;2023-03-13T03:54:45;97830.50;;;9.17;86.38
41140;BME280;26881;48.784;9.192;2023-03-13T04:00:07;97828.63;;;9.19;86.77
41140;BME280;26881;48.784;9.192;2023-03-13T04:05:31;97826.84;;;9.20;87.38
41140;BME280;26881;48.784;9.192;2023-03-13T04:10:52;97823.00;;;9.25;87.62
41140;BME280;26881;48.784;9.192;2023-03-13T04:16:14;97806.31;;;9.41;86.44
41140;BME280;26881;48.784;9.192;2023-03-13T04:21:36;97794.66;;;9.59;86.35
41140;BME280;26881;48.784;9.192;2023-03-13T04:26:58;97788.38;;;9.87;86.05
41140;BME280;26881;48.784;9.192;2023-03-13T04:32:20;97783.34;;;10.10;86.83
41140;BME280;26881;48.784;9.192;2023-03-13T04:37:42;97773.94;;;10.33;87.04
41140;BME280;26881;48.784;9.192;2023-03-13T04:43:04;97765.13;;;10.47;86.51
41140;BME280;26881;48.784;9.192;2023-03-13T04:48:25;97789.88;;;10.54;86.33
41140;BME280;26881;48.784;9.192;2023-03-13T04:53:47;97780.31;;;10.66;86.21
41140;BME280;26881;48.784;9.192;2023-03-13T04:59:13;97783.66;;;10.68;86.55
41140;BME280;26881;48.784;9.192;2023-03-13T05:04:35;97771.66;;;10.76;85.73
41140;BME280;26881;48.784;9.192;2023-03-13T05:09:57;97776.69;;;10.80;85.94
41140;BME280;26881;48.784;9.192;2023-03-13T05:15:19;97775.75;;;10.81;85.78
41140;BME280;26881;48.784;9.192;2023-03-13T05:20:41;97766.00;;;10.83;85.68
41140;BME280;26881;48.784;9.192;2023-03-13T05:26:03;97775.63;;;10.82;85.99
41140;BME280;26881;48.784;9.192;2023-03-13T05:31:24;97791.00;;;10.87;85.78
41140;BME280;26881;48.784;9.192;2023-03-13T05:36:46;97782.31;;;10.86;85.75
41140;BME280;26881;48.784;9.192;2023-03-13T05:42:08;97767.94;;;10.92;85.42
41140;BME280;26881;48.784;9.192;2023-03-13T05:47:30;97753.06;;;10.92;85.02
41140;BME280;26881;48.784;9.192;2023-03-13T05:52:52;97764.66;;;11.01;84.77
41140;BME280;26881;48.784;9.192;2023-03-13T05:58:14;97767.88;;;11.05;84.67
41140;BME280;26881;48.784;9.192;2023-03-13T06:03:35;97756.56;;;11.04;84.75
41140;BME280;26881;48.784;9.192;2023-03-13T06:08:57;97761.25;;;11.12;84.95
41140;BME280;26881;48.784;9.192;2023-03-13T06:14:19;97764.69;;;11.12;84.96
41140;BME280;26881;48.784;9.192;2023-03-13T06:19:41;97763.41;;;11.18;84.00
41140;BME280;26881;48.784;9.192;2023-03-13T06:25:04;97754.13;;;11.25;84.13
41140;BME280;26881;48.784;9.192;2023-03-13T06:30:26;97768.91;;;11.26;83.80
41140;BME280;26881;48.784;9.192;2023-03-13T06:35:47;97767.84;;;11.29;84.20
41140;BME280;26881;48.784;9.192;2023-03-13T06:41:17;97754.06;;;11.38;83.98
41140;BME280;26881;48.784;9.192;2023-03-13T06:46:39;97753.72;;;11.43;84.30
41140;BME280;26881;48.784;9.192;2023-03-13T06:52:00;97753.38;;;11.47;84.04
41140;BME280;26881;48.784;9.192;2023-03-13T06:57:22;97760.38;;;11.47;84.19
41140;BME280;26881;48.784;9.192;2023-03-13T07:02:44;97779.22;;;11.52;84.18
41140;BME280;26881;48.784;9.192;2023-03-13T07:08:06;97773.25;;;11.50;84.32
41140;BME280;26881;48.784;9.192;2023-03-13T07:13:28;97783.47;;;11.53;84.42
41140;BME280;26881;48.784;9.192;2023-03-13T07:18:49;97788.28;;;11.59;84.49
41140;BME280;26881;48.784;9.192;2023-03-13T07:24:11;97784.69;;;11.60;84.77
41140;BME280;26881;48.784;9.192;2023-03-13T07:29:33;97782.78;;;11.62;84.99
41140;BME280;26881;48.784;9.192;2023-03-13T07:35:02;97766.97;;;11.64;85.52
41140;BME280;26881;48.784;9.192;2023-03-13T07:40:25;97761.84;;;11.62;85.48
41140;BME280;26881;48.784;9.192;2023-03-13T07:45:50;97761.72;;;11.64;85.54
41140;BME280;26881;48.784;9.192;2023-03-13T07:51:15;97756.25;;;11.67;85.73
41140;BME280;26881;48.784;9.192;2023-03-13T07:56:38;97740.28;;;11.70;85.64
41140;BME280;26881;48.784;9.192;2023-03-13T08:02:00;97735.56;;;11.75;85.50
41140;BME280;26881;48.784;9.192;2023-03-13T08:07:22;97721.03;;;11.82;85.19
41140;BME280;26881;48.784;9.192;2023-03-13T08:12:44;97713.41;;;11.90;85.50
41140;BME280;26881;48.784;9.192;2023-03-13T08:18:05;97685.78;;;11.97;84.94
41140;BME280;26881;48.784;9.192;2023-03-13T08:23:27;97685.19;;;12.05;84.08
41140;BME280;26881;48.784;9.192;2023-03-13T08:29:07;97686.94;;;12.16;83.82
41140;BME280;26881;48.784;9.192;2023-03-13T08:34:29;97695.25;;;12.21;83.36
41140;BME280;26881;48.784;9.192;2023-03-13T08:39:50;97695.75;;;12.26;83.05
41140;BME280;26881;48.784;9.192;2023-03-13T08:45:14;97687.53;;;12.31;82.63
41140;BME280;26881;48.784;9.192;2023-03-13T08:50:36;97688.06;;;12.46;81.85
41140;BME280;26881;48.784;9.192;2023-03-13T08:55:58;97696.88;;;12.44;81.74
41140;BME280;26881;48.784;9.192;2023-03-13T09:01:22;97694.13;;;12.46;81.49
41140;BME280;26881;48.784;9.192;2023-03-13T09:06:44;97697.09;;;12.53;81.33
41140;BME280;26881;48.784;9.192;2023-03-13T09:12:06;97692.41;;;12.56;81.11
41140;BME280;26881;48.784;9.192;2023-03-13T09:17:41;97684.16;;;12.61;80.62
41140;BME280;26881;48.784;9.192;2023-03-13T09:23:03;97681.31;;;12.64;80.55
41140;BME280;26881;48.784;9.192;2023-03-13T09:28:25;97674.50;;;12.73;79.83
41140;BME280;26881;48.784;9.192;2023-03-13T09:33:48;97679.94;;;12.81;80.32
41140;BME280;26881;48.784;9.192;2023-03-13T09:39:10;97695.75;;;12.91;79.33
41140;BME280;26881;48.784;9.192;2023-03-13T09:44:39;97692.88;;;12.94;79.54
41140;BME280;26881;48.784;9.192;2023-03-13T09:50:11;97694.97;;;13.00;78.95
41140;BME280;26881;48.784;9.192;2023-03-13T09:55:36;97699.47;;;13.09;78.59
41140;BME280;26881;48.784;9.192;2023-03-13T10:01:04;97672.19;;;13.21;77.06
41140;BME280;26881;48.784;9.192;2023-03-13T10:06:29;97680.72;;;13.35;76.24
41140;BME280;26881;48.784;9.192;2023-03-13T10:17:32;97663.38;;;13.43;75.23
41140;BME280;26881;48.784;9.192;2023-03-13T10:22:58;97655.63;;;13.52;74.54
41140;BME280;26881;48.784;9.192;2023-03-13T10:28:21;97653.63;;;13.65;72.69
41140;BME280;26881;48.784;9.192;2023-03-13T10:33:44;97644.94;;;13.74;72.68
41140;BME280;26881;48.784;9.192;2023-03-13T10:39:11;97640.72;;;13.93;71.57
41140;BME280;26881;48.784;9.192;2023-03-13T10:44:35;97633.28;;;14.07;71.01
41140;BME280;26881;48.784;9.192;2023-03-13T10:49:57;97623.31;;;14.11;70.24
41140;BME280;26881;48.784;9.192;2023-03-13T10:55:24;97616.84;;;14.15;70.13
41140;BME280;26881;48.784;9.192;2023-03-13T11:00:46;97608.38;;;14.31;69.03
41140;BME280;26881;48.784;9.192;2023-03-13T11:06:26;97605.22;;;14.37;69.63
41140;BME280;26881;48.784;9.192;2023-03-13T11:11:55;97605.63;;;14.42;69.05
41140;BME280;26881;48.784;9.192;2023-03-13T11:17:53;97598.56;;;14.43;68.70
41140;BME280;26881;48.784;9.192;2023-03-13T11:23:20;97582.13;;;14.60;67.60
41140;BME280;26881;48.784;9.192;2023-03-13T11:28:54;97571.03;;;14.57;67.82
41140;BME280;26881;48.784;9.192;2023-03-13T11:34:23;97550.84;;;14.57;67.82
41140;BME280;26881;48.784;9.192;2023-03-13T11:40:14;97533.53;;;15.02;65.78
41140;BME280;26881;48.784;9.192;2023-03-13T11:51:49;97487.50;;;15.33;64.77
41140;BME280;26881;48.784;9.192;2023-03-13T11:57:23;97478.31;;;15.37;64.30
41140;BME280;26881;48.784;9.192;2023-03-13T12:08:43;97452.06;;;15.64;63.38
41140;BME280;26881;48.784;9.192;2023-03-13T12:14:19;97442.47;;;15.72;62.79
41140;BME280;26881;48.784;9.192;2023-03-13T12:19:54;97420.16;;;15.85;61.89
41140;BME280;26881;48.784;9.192;2023-03-13T12:25:25;97404.19;;;16.04;60.54
41140;BME280;26881;48.784;9.192;2023-03-13T12:36:30;97365.19;;;16.42;59.22
41140;BME280;26881;48.784;9.192;2023-03-13T12:47:33;97324.31;;;16.54;57.99
41140;BME280;26881;48.784;9.192;2023-03-13T13:04:23;97267.78;;;16.73;56.92
41140;BME280;26881;48.784;9.192;2023-03-13T13:15:30;97237.66;;;16.84;56.44
41140;BME280;26881;48.784;9.192;2023-03-13T13:53:50;97155.31;;;16.89;54.70
41140;BME280;26881;48.784;9.192;2023-03-13T14:04:47;97141.78;;;17.00;53.55
41140;BME280;26881;48.784;9.192;2023-03-13T14:15:48;97125.59;;;17.03;53.15
41140;BME280;26881;48.784;9.192;2023-03-13T14:21:10;97105.25;;;17.03;53.65
41140;BME280;26881;48.784;9.192;2023-03-13T14:26:42;97098.50;;;17.09;53.60
41140;BME280;26881;48.784;9.192;2023-03-13T14:32:04;97069.72;;;17.31;52.71
41140;BME280;26881;48.784;9.192;2023-03-13T14:37:40;97057.91;;;17.49;50.67
41140;BME280;26881;48.784;9.192;2023-03-13T14:43:03;97048.06;;;17.75;49.79
41140;BME280;26881;48.784;9.192;2023-03-13T14:48:33;97035.31;;;17.78;49.80
41140;BME280;26881;48.784;9.192;2023-03-13T14:54:01;97010.84;;;17.84;49.22
41140;BME280;26881;48.784;9.192;2023-03-13T14:59:24;96993.13;;;17.93;49.13
41140;BME280;26881;48.784;9.192;2023-03-13T15:10:21;96979.25;;;17.91;49.29
41140;BME280;26881;48.784;9.192;2023-03-13T15:15:45;96957.59;;;17.87;49.70
41140;BME280;26881;48.784;9.192;2023-03-13T15:26:37;96925.66;;;17.97;49.79
41140;BME280;26881;48.784;9.192;2023-03-13T15:32:01;96895.50;;;17.83;50.40
41140;BME280;26881;48.784;9.192;2023-03-13T15:37:25;96879.28;;;17.86;50.06
41140;BME280;26881;48.784;9.192;2023-03-13T15:42:47;96872.31;;;17.85;50.26
41140;BME280;26881;48.784;9.192;2023-03-13T15:48:24;96862.16;;;17.74;51.11
41140;BME280;26881;48.784;9.192;2023-03-13T15:53:46;96871.06;;;17.73;50.89
41140;BME280;26881;48.784;9.192;2023-03-13T15:59:10;96857.84;;;17.73;50.89
41140;BME280;26881;48.784;9.192;2023-03-13T16:04:32;96848.94;;;17.74;50.94
41140;BME280;26881;48.784;9.192;2023-03-13T16:09:56;96845.28;;;17.75;51.10
41140;BME280;26881;48.784;9.192;2023-03-13T16:15:18;96825.78;;;17.76;51.20
41140;BME280;26881;48.784;9.192;2023-03-13T16:20:40;96815.38;;;17.75;52.08
41140;BME280;26881;48.784;9.192;2023-03-13T16:26:02;96812.19;;;17.79;52.15
41140;BME280;26881;48.784;9.192;2023-03-13T16:31:29;96796.94;;;17.66;52.77
41140;BME280;26881;48.784;9.192;2023-03-13T16:36:51;96802.06;;;17.68;52.59
41140;BME280;26881;48.784;9.192;2023-03-13T16:42:13;96798.91;;;17.49;53.13
41140;BME280;26881;48.784;9.192;2023-03-13T16:47:35;96795.97;;;17.44;53.92
41140;BME280;26881;48.784;9.192;2023-03-13T16:52:57;96790.44;;;17.31;54.13
41140;BME280;26881;48.784;9.192;2023-03-13T16:58:19;96787.22;;;17.21;54.68
41140;BME280;26881;48.784;9.192;2023-03-13T17:03:41;96779.72;;;17.10;55.06
41140;BME280;26881;48.784;9.192;2023-03-13T17:09:05;96780.09;;;16.98;55.50
41140;BME280;26881;48.784;9.192;2023-03-13T17:14:30;96769.94;;;16.87;56.14
41140;BME280;26881;48.784;9.192;2023-03-13T17:19:52;96763.03;;;16.78;56.89
41140;BME280;26881;48.784;9.192;2023-03-13T17:25:16;96756.34;;;16.67;57.47
41140;BME280;26881;48.784;9.192;2023-03-13T17:30:38;96751.22;;;16.65;57.32
41140;BME280;26881;48.784;9.192;2023-03-13T17:36:00;96733.63;;;16.58;57.66
41140;BME280;26881;48.784;9.192;2023-03-13T17:41:24;96726.56;;;16.50;57.84
41140;BME280;26881;48.784;9.192;2023-03-13T17:46:46;96712.91;;;16.47;57.85
41140;BME280;26881;48.784;9.192;2023-03-13T17:52:12;96703.03;;;16.40;57.91
41140;BME280;26881;48.784;9.192;2023-03-13T17:57:34;96688.38;;;16.38;58.24
41140;BME280;26881;48.784;9.192;2023-03-13T18:02:57;96674.53;;;16.36;58.32
41140;BME280;26881;48.784;9.192;2023-03-13T18:08:19;96655.41;;;16.34;58.63
41140;BME280;26881;48.784;9.192;2023-03-13T18:13:42;96647.84;;;16.31;58.88
41140;BME280;26881;48.784;9.192;2023-03-13T18:19:06;96631.56;;;16.27;59.18
41140;BME280;26881;48.784;9.192;2023-03-13T18:24:31;96651.19;;;16.25;59.21
41140;BME280;26881;48.784;9.192;2023-03-13T18:29:54;96678.06;;;16.20;59.63
41140;BME280;26881;48.784;9.192;2023-03-13T18:35:16;96675.31;;;16.13;60.12
41140;BME280;26881;48.784;9.192;2023-03-13T18:40:38;96739.13;;;16.00;61.63
41140;BME280;26881;48.784;9.192;2023-03-13T18:46:00;96862.75;;;15.79;67.05
41140;BME280;26881;48.784;9.192;2023-03-13T18:51:24;96873.06;;;15.23;75.85
41140;BME280;26881;48.784;9.192;2023-03-13T18:56:46;96799.72;;;14.78;82.81
41140;BME280;26881;48.784;9.192;2023-03-13T19:02:17;96749.13;;;14.49;85.16
41140;BME280;26881;48.784;9.192;2023-03-13T19:07:39;96712.38;;;14.23;89.57
41140;BME280;26881;48.784;9.192;2023-03-13T19:13:01;96729.09;;;14.06;90.65
41140;BME280;26881;48.784;9.192;2023-03-13T19:18:23;96737.41;;;13.93;93.23
41140;BME280;26881;48.784;9.192;2023-03-13T19:23:46;96750.50;;;13.85;95.26
41140;BME280;26881;48.784;9.192;2023-03-13T19:29:18;96731.00;;;13.96;94.49
41140;BME280;26881;48.784;9.192;2023-03-13T19:34:42;96753.97;;;13.94;95.07
41140;BME280;26881;48.784;9.192;2023-03-13T19:40:09;96759.34;;;13.84;97.22
41140;BME280;26881;48.784;9.192;2023-03-13T19:45:35;96866.00;;;13.68;99.90
41140;BME280;26881;48.784;9.192;2023-03-13T19:50:57;96860.06;;;13.66;99.10
41140;BME280;26881;48.784;9.192;2023-03-13T19:56:26;96896.69;;;13.68;96.92
41140;BME280;26881;48.784;9.192;2023-03-13T20:01:48;96956.59;;;13.64;98.33
41140;BME280;26881;48.784;9.192;2023-03-13T20:07:10;97063.50;;;13.54;100.00
41140;BME280;26881;48.784;9.192;2023-03-13T20:12:32;97047.47;;;13.57;100.00
41140;BME280;26881;48.784;9.192;2023-03-13T20:17:54;97111.78;;;13.53;100.00
41140;BME280;26881;48.784;9.192;2023-03-13T20:23:17;97146.44;;;13.29;87.19
41140;BME280;26881;48.784;9.192;2023-03-13T20:28:41;97172.00;;;12.88;86.44
41140;BME280;26881;48.784;9.192;2023-03-13T20:34:03;97137.78;;;12.70;86.60
41140;BME280;26881;48.784;9.192;2023-03-13T20:39:26;97150.19;;;12.39;89.69
41140;BME280;26881;48.784;9.192;2023-03-13T20:44:48;97167.44;;;12.41;88.37
41140;BME280;26881;48.784;9.192;2023-03-13T20:50:10;97173.19;;;12.16;91.83
41140;BME280;26881;48.784;9.192;2023-03-13T20:55:32;97151.09;;;11.89;94.73
41140;BME280;26881;48.784;9.192;2023-03-13T21:00:57;97133.63;;;11.69;95.85
41140;BME280;26881;48.784;9.192;2023-03-13T21:06:19;97138.63;;;11.20;99.11
41140;BME280;26881;48.784;9.192;2023-03-13T21:11:41;97129.78;;;11.42;100.00
41140;BME280;26881;48.784;9.192;2023-03-13T21:17:03;97072.47;;;11.39;99.62
41140;BME280;26881;48.784;9.192;2023-03-13T21:22:26;97150.94;;;11.29;100.00
41140;BME280;26881;48.784;9.192;2023-03-13T21:27:49;97196.16;;;11.10;100.00
41140;BME280;26881;48.784;9.192;2023-03-13T21:33:11;97195.25;;;11.21;100.00
41140;BME280;26881;48.784;9.192;2023-03-13T21:38:33;97143.91;;;11.30;99.61
41140;BME280;26881;48.784;9.192;2023-03-13T21:43:55;97068.63;;;11.43;96.76
41140;BME280;26881;48.784;9.192;2023-03-13T21:49:17;97095.72;;;11.32;95.89
41140;BME280;26881;48.784;9.192;2023-03-13T21:54:39;97102.13;;;11.18;98.52
41140;BME280;26881;48.784;9.192;2023-03-13T22:00:01;97079.31;;;11.30;97.73
41140;BME280;26881;48.784;9.192;2023-03-13T22:05:24;97037.44;;;11.30;97.18
41140;BME280;26881;48.784;9.192;2023-03-13T22:10:47;97000.00;;;11.39;96.96
41140;BME280;26881;48.784;9.192;2023-03-13T22:16:10;96967.13;;;11.06;96.24
41140;BME280;26881;48.784;9.192;2023-03-13T22:21:32;97020.47;;;11.15;97.47
41140;BME280;26881;48.784;9.192;2023-03-13T22:26:54;97009.03;;;11.26;99.12
41140;BME280;26881;48.784;9.192;2023-03-13T22:32:15;96971.03;;;11.22;98.71
41140;BME280;26881;48.784;9.192;2023-03-13T22:37:37;96927.09;;;11.25;99.32
41140;BME280;26881;48.784;9.192;2023-03-13T22:42:59;96897.50;;;11.25;98.09
41140;BME280;26881;48.784;9.192;2023-03-13T22:48:21;96917.59;;;11.24;99.37
41140;BME280;26881;48.784;9.192;2023-03-13T22:53:43;96968.53;;;11.10;100.00
41140;BME280;26881;48.784;9.192;2023-03-13T22:59:05;96984.72;;;10.94;100.00
41140;BME280;26881;48.784;9.192;2023-03-13T23:04:26;97008.84;;;10.98;100.00
41140;BME280;26881;48.784;9.192;2023-03-13T23:09:48;97012.44;;;11.07;100.00
41140;BME280;26881;48.784;9.192;2023-03-13T23:15:10;97024.56;;;11.08;100.00
41140;BME280;26881;48.784;9.192;2023-03-13T23:20:32;97032.97;;;11.11;100.00
41140;BME280;26881;48.784;9.192;2023-03-13T23:26:03;96999.22;;;11.08;100.00
41140;BME280;26881;48.784;9.192;2023-03-13T23:31:25;96939.06;;;11.08;100.00
41140;BME280;26881;48.784;9.192;2023-03-13T23:36:48;96928.06;;;11.14;98.58
41140;BME280;26881;48.784;9.192;2023-03-13T23:42:10;96951.59;;;11.14;96.82
41140;BME280;26881;48.784;9.192;2023-03-13T23:47:32;97011.41;;;11.29;98.36
41140;BME280;26881;48.784;9.192;2023-03-13T23:52:53;97009.19;;;11.24;99.09
41140;BME280;26881;48.784;9.192;2023-03-13T23:58:16;97000.47;;;11.14;100.00
